createdAt,value
2018-04-18T00:00:30.714Z,28.1
2018-04-18T00:01:31.514Z,19.6
2018-04-18T00:02:32.255Z,28.8
2018-04-18T00:03:33.070Z,28.9
2018-04-18T00:04:33.815Z,29.9
2018-04-18T00:05:34.622Z,27.8
2018-04-18T00:06:35.428Z,27.2
2018-04-18T00:07:36.172Z,23.2
2018-04-18T00:08:36.930Z,29.5
2018-04-18T00:09:37.677Z,28.9
2018-04-18T00:10:38.425Z,20.7
2018-04-18T00:11:39.166Z,23.2
2018-04-18T00:12:39.896Z,27.5
2018-04-18T00:13:40.714Z,24.8
2018-04-18T00:14:41.457Z,24.5
2018-04-18T00:15:42.200Z,29.4
2018-04-18T00:16:42.955Z,29.7
2018-04-18T00:17:43.788Z,24.3
2018-04-18T00:18:44.532Z,29.4
2018-04-18T00:19:45.265Z,24.8
2018-04-18T00:20:46.012Z,28.6
2018-04-18T00:21:46.751Z,25.4
2018-04-18T00:22:47.485Z,24.9
2018-04-18T00:23:48.221Z,23.7
2018-04-18T00:24:49.027Z,26.7
2018-04-18T00:25:49.812Z,24.7
2018-04-18T00:26:50.635Z,25.4
2018-04-18T00:27:51.373Z,26.2
2018-04-18T00:28:52.103Z,21.3
2018-04-18T00:29:52.904Z,24.9
2018-04-18T00:30:53.637Z,25.7
2018-04-18T00:31:54.395Z,21.4
2018-04-18T00:32:55.136Z,22.5
2018-04-18T00:33:55.875Z,27.0
2018-04-18T00:34:56.644Z,22.1
2018-04-18T00:35:57.404Z,23.7
2018-04-18T00:36:58.138Z,23.2
2018-04-18T00:37:58.875Z,30.4
2018-04-18T00:38:59.614Z,28.1
2018-04-18T00:40:00.452Z,26.7
2018-04-18T00:41:01.178Z,31.6
2018-04-18T00:42:01.987Z,22.7
2018-04-18T00:43:02.730Z,28.2
2018-04-18T00:44:03.583Z,28.0
2018-04-18T00:45:04.280Z,33.3
2018-04-18T00:46:05.063Z,30.4
2018-04-18T00:47:05.839Z,31.8
2018-04-18T00:48:06.571Z,28.2
2018-04-18T00:49:07.373Z,37.9
2018-04-18T00:50:08.196Z,38.5
2018-04-18T00:51:08.964Z,30.9
2018-04-18T00:52:09.755Z,30.4
2018-04-18T00:53:10.588Z,31.2
2018-04-18T00:54:11.405Z,36.4
2018-04-18T00:55:12.234Z,32.9
2018-04-18T00:56:12.987Z,37.6
2018-04-18T00:57:13.779Z,34.6
2018-04-18T00:58:14.556Z,36.9
2018-04-18T00:59:15.346Z,39.0
2018-04-18T01:00:16.133Z,36.6
2018-04-18T01:01:16.945Z,34.5
2018-04-18T01:02:17.772Z,29.9
2018-04-18T01:03:18.550Z,29.9
2018-04-18T01:04:19.301Z,34.7
2018-04-18T01:05:20.022Z,34.7
2018-04-18T01:06:20.814Z,32.5
2018-04-18T01:07:21.667Z,32.5
2018-04-18T01:08:22.414Z,37.8
2018-04-18T01:09:23.107Z,33.9
2018-04-18T01:10:23.852Z,35.3
2018-04-18T01:11:24.588Z,27.2
2018-04-18T01:12:25.313Z,26.9
2018-04-18T01:13:26.147Z,29.5
2018-04-18T01:14:26.956Z,37.6
2018-04-18T01:15:27.713Z,28.8
2018-04-18T01:16:28.482Z,30.3
2018-04-18T01:17:29.337Z,30.6
2018-04-18T01:18:30.259Z,30.6
2018-04-18T01:19:31.034Z,34.0
2018-04-18T01:20:31.757Z,35.7
2018-04-18T01:21:32.508Z,35.5
2018-04-18T01:22:33.251Z,34.2
2018-04-18T01:23:34.045Z,29.7
2018-04-18T01:24:34.844Z,32.5
2018-04-18T01:25:35.599Z,30.7
2018-04-18T01:26:36.409Z,32.4
2018-04-18T01:27:37.233Z,30.1
2018-04-18T01:28:37.954Z,31.8
2018-04-18T01:29:38.887Z,32.2
2018-04-18T01:30:39.606Z,34.2
2018-04-18T01:31:40.351Z,32.8
2018-04-18T01:32:41.081Z,34.4
2018-04-18T01:33:41.886Z,28.6
2018-04-18T01:34:42.596Z,29.4
2018-04-18T01:35:43.359Z,35.0
2018-04-18T01:36:44.094Z,33.6
2018-04-18T01:37:44.837Z,35.0
2018-04-18T01:38:45.653Z,33.9
2018-04-18T01:39:46.369Z,32.3
2018-04-18T01:40:47.168Z,30.1
2018-04-18T01:41:47.904Z,34.1
2018-04-18T01:42:48.627Z,36.7
2018-04-18T01:43:49.364Z,33.4
2018-04-18T01:44:50.062Z,33.3
2018-04-18T01:45:50.864Z,31.5
2018-04-18T01:46:51.593Z,27.9
2018-04-18T01:47:52.336Z,33.8
2018-04-18T01:48:53.081Z,35.0
2018-04-18T01:49:53.779Z,28.6
2018-04-18T01:50:54.603Z,31.4
2018-04-18T01:51:55.426Z,30.9
2018-04-18T01:52:56.165Z,29.0
2018-04-18T01:53:57.007Z,30.9
2018-04-18T01:54:57.782Z,36.5
2018-04-18T01:55:58.504Z,34.4
2018-04-18T01:56:59.238Z,35.6
2018-04-18T01:57:59.985Z,31.6
2018-04-18T01:59:00.826Z,35.6
2018-04-18T02:00:01.570Z,29.2
2018-04-18T02:01:02.385Z,29.8
2018-04-18T02:02:03.120Z,34.9
2018-04-18T02:03:03.826Z,35.5
2018-04-18T02:04:04.562Z,30.8
2018-04-18T02:05:05.296Z,31.4
2018-04-18T02:06:06.031Z,28.7
2018-04-18T02:07:06.785Z,32.3
2018-04-18T02:08:07.516Z,33.0
2018-04-18T02:09:08.267Z,31.7
2018-04-18T02:10:08.995Z,40.1
2018-04-18T02:11:09.911Z,32.2
2018-04-18T02:12:10.664Z,32.3
2018-04-18T02:13:11.394Z,35.2
2018-04-18T02:14:12.128Z,30.1
2018-04-18T02:15:12.866Z,30.3
2018-04-18T02:16:13.716Z,32.8
2018-04-18T02:17:14.507Z,34.0
2018-04-18T02:18:15.257Z,33.5
2018-04-18T02:19:15.975Z,34.8
2018-04-18T02:20:16.737Z,42.6
2018-04-18T02:21:17.645Z,31.0
2018-04-18T02:22:18.444Z,34.9
2018-04-18T02:23:19.193Z,37.7
2018-04-18T02:24:20.003Z,34.5
2018-04-18T02:25:20.741Z,38.0
2018-04-18T02:26:21.568Z,39.8
2018-04-18T02:27:22.369Z,40.5
2018-04-18T02:28:23.062Z,33.4
2018-04-18T02:29:23.918Z,31.8
2018-04-18T02:30:24.663Z,30.4
2018-04-18T02:31:25.460Z,29.9
2018-04-18T02:32:26.183Z,35.5
2018-04-18T02:33:26.911Z,33.4
2018-04-18T02:34:27.633Z,31.0
2018-04-18T02:35:28.363Z,37.2
2018-04-18T02:36:29.148Z,30.1
2018-04-18T02:37:29.994Z,33.3
2018-04-18T02:38:30.708Z,33.4
2018-04-18T02:39:31.445Z,35.7
2018-04-18T02:40:32.258Z,35.1
2018-04-18T02:41:33.012Z,36.1
2018-04-18T02:42:33.740Z,33.7
2018-04-18T02:43:34.640Z,33.1
2018-04-18T02:44:35.433Z,39.6
2018-04-18T02:45:36.252Z,38.2
2018-04-18T02:46:36.979Z,36.7
2018-04-18T02:47:37.713Z,34.4
2018-04-18T02:48:38.439Z,40.4
2018-04-18T02:49:39.231Z,35.4
2018-04-18T02:50:40.050Z,36.0
2018-04-18T02:51:40.804Z,32.7
2018-04-18T02:52:41.598Z,35.7
2018-04-18T02:53:42.363Z,33.9
2018-04-18T02:54:43.187Z,30.8
2018-04-18T02:55:43.985Z,33.9
2018-04-18T02:56:44.799Z,39.4
2018-04-18T02:57:45.530Z,43.2
2018-04-18T02:58:46.276Z,36.1
2018-04-18T02:59:47.033Z,40.8
2018-04-18T03:00:47.777Z,41.8
2018-04-18T03:01:49.005Z,39.0
2018-04-18T03:02:49.729Z,42.3
2018-04-18T03:03:50.468Z,42.8
2018-04-18T03:04:51.259Z,37.8
2018-04-18T03:05:51.998Z,42.6
2018-04-18T03:06:52.737Z,43.1
2018-04-18T03:07:53.534Z,36.9
2018-04-18T03:08:54.276Z,40.3
2018-04-18T03:09:55.013Z,42.4
2018-04-18T03:10:55.737Z,40.4
2018-04-18T03:11:56.597Z,37.3
2018-04-18T03:12:57.338Z,38.2
2018-04-18T03:13:58.082Z,41.6
2018-04-18T03:14:58.877Z,34.3
2018-04-18T03:15:59.699Z,41.8
2018-04-18T03:17:00.438Z,47.4
2018-04-18T03:18:01.197Z,48.1
2018-04-18T03:19:01.970Z,45.3
2018-04-18T03:20:02.773Z,45.8
2018-04-18T03:21:03.499Z,39.7
2018-04-18T03:22:04.407Z,42.0
2018-04-18T03:23:05.188Z,44.9
2018-04-18T03:24:05.901Z,41.3
2018-04-18T03:25:06.629Z,46.6
2018-04-18T03:26:07.377Z,46.8
2018-04-18T03:27:08.128Z,46.2
2018-04-18T03:28:08.907Z,46.1
2018-04-18T03:29:10.027Z,43.4
2018-04-18T03:30:10.758Z,43.7
2018-04-18T03:31:11.541Z,45.1
2018-04-18T03:32:12.288Z,50.3
2018-04-18T03:33:13.107Z,61.1
2018-04-18T03:34:13.854Z,59.1
2018-04-18T03:35:14.649Z,204.5
2018-04-18T03:36:15.400Z,177.3
2018-04-18T03:37:16.138Z,56.6
2018-04-18T03:38:16.904Z,49.0
2018-04-18T03:39:17.698Z,53.1
2018-04-18T03:40:18.440Z,53.5
2018-04-18T03:41:19.206Z,50.8
2018-04-18T03:42:19.939Z,54.5
2018-04-18T03:43:20.698Z,54.8
2018-04-18T03:44:21.439Z,49.8
2018-04-18T03:45:22.173Z,50.8
2018-04-18T03:46:22.908Z,47.3
2018-04-18T03:47:23.703Z,43.9
2018-04-18T03:48:24.371Z,53.9
2018-04-18T03:49:25.119Z,55.6
2018-04-18T03:50:25.855Z,51.6
2018-04-18T03:51:26.590Z,55.0
2018-04-18T03:52:27.305Z,53.6
2018-04-18T03:53:28.028Z,58.4
2018-04-18T03:54:28.781Z,55.7
2018-04-18T03:55:29.542Z,69.5
2018-04-18T03:56:30.258Z,54.3
2018-04-18T03:57:31.024Z,51.5
2018-04-18T03:58:31.815Z,54.7
2018-04-18T03:59:32.575Z,62.6
2018-04-18T04:00:33.316Z,53.5
2018-04-18T04:01:34.151Z,56.7
2018-04-18T04:02:34.910Z,49.6
2018-04-18T04:03:35.616Z,51.2
2018-04-18T04:04:36.413Z,47.5
2018-04-18T04:05:37.153Z,57.3
2018-04-18T04:06:37.883Z,52.8
2018-04-18T04:07:38.609Z,59.0
2018-04-18T04:08:39.331Z,61.8
2018-04-18T04:09:40.085Z,56.4
2018-04-18T04:10:40.833Z,53.1
2018-04-18T04:11:41.617Z,54.9
2018-04-18T04:12:42.477Z,57.8
2018-04-18T04:13:43.277Z,56.9
2018-04-18T04:14:44.010Z,54.3
2018-04-18T04:15:44.818Z,55.0
2018-04-18T04:16:45.569Z,52.1
2018-04-18T04:17:46.379Z,54.8
2018-04-18T04:18:47.188Z,59.3
2018-04-18T04:19:47.919Z,50.0
2018-04-18T04:20:48.677Z,57.9
2018-04-18T04:21:49.405Z,59.6
2018-04-18T04:22:50.233Z,68.2
2018-04-18T04:23:51.044Z,58.6
2018-04-18T04:24:51.823Z,58.3
2018-04-18T04:25:52.517Z,61.1
2018-04-18T04:26:53.241Z,53.8
2018-04-18T04:27:53.972Z,57.3
2018-04-18T04:28:54.774Z,54.6
2018-04-18T04:29:55.506Z,55.3
2018-04-18T04:30:56.348Z,58.0
2018-04-18T04:31:57.058Z,63.4
2018-04-18T04:32:57.799Z,55.6
2018-04-18T04:33:58.653Z,56.5
2018-04-18T04:34:59.396Z,56.5
2018-04-18T04:36:00.122Z,51.9
2018-04-18T04:37:00.916Z,58.5
2018-04-18T04:38:01.675Z,52.3
2018-04-18T04:39:02.419Z,56.1
2018-04-18T04:40:03.184Z,59.9
2018-04-18T04:41:03.925Z,56.2
2018-04-18T04:42:04.676Z,54.4
2018-04-18T04:43:05.425Z,64.0
2018-04-18T04:44:06.160Z,56.1
2018-04-18T04:45:06.943Z,61.6
2018-04-18T04:46:07.760Z,56.5
2018-04-18T04:47:08.503Z,56.3
2018-04-18T04:48:09.238Z,55.5
2018-04-18T04:49:09.975Z,59.7
2018-04-18T04:50:10.758Z,52.7
2018-04-18T04:51:11.557Z,50.2
2018-04-18T04:52:12.306Z,58.8
2018-04-18T04:53:13.115Z,54.7
2018-04-18T04:54:13.840Z,56.2
2018-04-18T04:55:14.589Z,60.6
2018-04-18T04:56:15.322Z,63.0
2018-04-18T04:57:16.050Z,53.6
2018-04-18T04:58:16.792Z,54.5
2018-04-18T04:59:17.600Z,62.6
2018-04-18T05:00:18.313Z,59.5
2018-04-18T05:01:19.059Z,59.8
2018-04-18T05:02:19.815Z,54.3
2018-04-18T05:03:20.590Z,61.2
2018-04-18T05:04:21.313Z,60.6
2018-04-18T05:05:22.061Z,54.0
2018-04-18T05:06:22.804Z,58.2
2018-04-18T05:07:23.670Z,49.2
2018-04-18T05:08:24.573Z,58.2
2018-04-18T05:09:25.308Z,60.2
2018-04-18T05:10:26.132Z,53.9
2018-04-18T05:11:26.905Z,51.5
2018-04-18T05:12:27.652Z,55.6
2018-04-18T05:13:28.488Z,52.4
2018-04-18T05:14:29.227Z,50.7
2018-04-18T05:15:29.975Z,56.9
2018-04-18T05:16:30.716Z,52.1
2018-04-18T05:17:31.475Z,54.0
2018-04-18T05:18:32.522Z,53.2
2018-04-18T05:19:33.259Z,50.0
2018-04-18T05:20:34.154Z,53.1
2018-04-18T05:21:34.891Z,57.2
2018-04-18T05:22:35.641Z,50.8
2018-04-18T05:23:37.169Z,51.1
2018-04-18T05:24:37.901Z,45.9
2018-04-18T05:25:38.648Z,49.6
2018-04-18T05:26:39.390Z,43.8
2018-04-18T05:27:40.221Z,50.2
2018-04-18T05:28:41.043Z,39.9
2018-04-18T05:29:41.880Z,49.9
2018-04-18T05:30:42.676Z,50.1
2018-04-18T05:31:43.416Z,45.6
2018-04-18T05:32:44.142Z,54.0
2018-04-18T05:33:44.960Z,56.8
2018-04-18T05:34:45.714Z,44.6
2018-04-18T05:35:46.541Z,48.1
2018-04-18T05:36:47.267Z,47.8
2018-04-18T05:37:48.073Z,49.2
2018-04-18T05:38:48.846Z,47.6
2018-04-18T05:39:49.674Z,43.4
2018-04-18T05:40:50.458Z,37.1
2018-04-18T05:41:51.178Z,44.4
2018-04-18T05:42:51.913Z,41.1
2018-04-18T05:43:52.701Z,38.4
2018-04-18T05:44:53.441Z,34.5
2018-04-18T05:45:54.188Z,40.3
2018-04-18T05:46:54.979Z,33.4
2018-04-18T05:47:55.805Z,40.7
2018-04-18T05:48:56.555Z,28.5
2018-04-18T05:49:57.373Z,34.3
2018-04-18T05:50:58.255Z,35.2
2018-04-18T05:51:58.981Z,35.2
2018-04-18T05:52:59.737Z,32.9
2018-04-18T05:54:00.655Z,28.6
2018-04-18T05:55:01.394Z,34.5
2018-04-18T05:56:02.151Z,37.8
2018-04-18T05:57:02.866Z,27.5
2018-04-18T05:58:03.599Z,29.9
2018-04-18T05:59:04.344Z,34.9
2018-04-18T06:00:05.136Z,32.4
2018-04-18T06:01:05.871Z,29.9
2018-04-18T06:02:06.688Z,31.3
2018-04-18T06:03:07.489Z,31.3
2018-04-18T06:04:08.310Z,35.1
2018-04-18T06:05:09.112Z,29.7
2018-04-18T06:06:09.889Z,28.9
2018-04-18T06:07:10.584Z,21.8
2018-04-18T06:08:11.304Z,23.6
2018-04-18T06:09:12.159Z,28.5
2018-04-18T06:10:12.906Z,28.2
2018-04-18T06:11:13.776Z,25.4
2018-04-18T06:12:14.478Z,31.7
2018-04-18T06:13:15.215Z,28.1
2018-04-18T06:14:15.971Z,28.1
2018-04-18T06:15:16.733Z,22.4
2018-04-18T06:16:17.465Z,24.8
2018-04-18T06:17:18.240Z,20.4
2018-04-18T06:18:18.934Z,25.0
2018-04-18T06:19:19.719Z,24.8
2018-04-18T06:20:20.437Z,25.8
2018-04-18T06:21:21.229Z,21.1
2018-04-18T06:22:22.050Z,26.4
2018-04-18T06:23:22.796Z,24.2
2018-04-18T06:24:23.562Z,25.6
2018-04-18T06:25:24.303Z,24.1
2018-04-18T06:26:25.049Z,22.8
2018-04-18T06:27:25.848Z,23.0
2018-04-18T06:28:26.579Z,24.3
2018-04-18T06:29:27.322Z,33.7
2018-04-18T06:30:28.070Z,28.5
2018-04-18T06:31:28.836Z,22.2
2018-04-18T06:32:29.663Z,23.0
2018-04-18T06:33:30.476Z,25.1
2018-04-18T06:34:31.287Z,24.4
2018-04-18T06:35:32.038Z,23.1
2018-04-18T06:36:32.785Z,28.2
2018-04-18T06:37:33.884Z,23.3
2018-04-18T06:38:34.613Z,23.0
2018-04-18T06:39:35.348Z,20.8
2018-04-18T06:40:36.099Z,22.1
2018-04-18T06:41:36.859Z,21.3
2018-04-18T06:42:37.754Z,25.1
2018-04-18T06:43:38.499Z,23.8
2018-04-18T06:44:39.230Z,21.9
2018-04-18T06:45:39.986Z,26.7
2018-04-18T06:46:40.741Z,22.1
2018-04-18T06:47:41.885Z,22.0
2018-04-18T06:48:42.693Z,22.3
2018-04-18T06:49:43.452Z,23.8
2018-04-18T06:50:44.264Z,27.6
2018-04-18T06:51:45.022Z,25.4
2018-04-18T06:52:45.774Z,25.8
2018-04-18T06:53:46.523Z,20.6
2018-04-18T06:54:47.384Z,24.3
2018-04-18T06:55:48.165Z,27.5
2018-04-18T06:56:48.915Z,22.9
2018-04-18T06:57:49.661Z,23.7
2018-04-18T06:58:50.837Z,21.6
2018-04-18T06:59:51.572Z,24.8
2018-04-18T07:00:52.298Z,21.5
2018-04-18T07:01:53.042Z,21.4
2018-04-18T07:02:53.818Z,23.0
2018-04-18T07:03:54.566Z,23.0
2018-04-18T07:04:55.304Z,19.4
2018-04-18T07:05:56.050Z,25.6
2018-04-18T07:06:56.795Z,25.3
2018-04-18T07:07:57.606Z,19.9
2018-04-18T07:08:58.735Z,21.8
2018-04-18T07:09:59.489Z,18.0
2018-04-18T07:11:00.224Z,19.4
2018-04-18T07:12:00.974Z,22.7
2018-04-18T07:13:01.734Z,25.4
2018-04-18T07:14:02.491Z,22.5
2018-04-18T07:15:03.265Z,20.1
2018-04-18T07:16:04.055Z,18.3
2018-04-18T07:17:04.912Z,25.9
2018-04-18T07:18:05.632Z,21.3
2018-04-18T07:19:06.473Z,15.6
2018-04-18T07:20:07.570Z,21.7
2018-04-18T07:21:08.318Z,23.1
2018-04-18T07:22:09.109Z,20.4
2018-04-18T07:23:09.866Z,20.2
2018-04-18T07:24:10.696Z,23.0
2018-04-18T07:25:11.514Z,24.1
2018-04-18T07:26:12.272Z,23.3
2018-04-18T07:27:13.108Z,24.4
2018-04-18T07:28:13.865Z,21.7
2018-04-18T07:29:14.597Z,23.5
2018-04-18T07:30:15.330Z,20.7
2018-04-18T07:31:16.085Z,24.0
2018-04-18T07:32:16.970Z,24.8
2018-04-18T07:33:17.721Z,17.5
2018-04-18T07:34:18.585Z,17.9
2018-04-18T07:35:19.268Z,19.5
2018-04-18T07:36:20.046Z,23.8
2018-04-18T07:37:20.789Z,24.5
2018-04-18T07:38:21.560Z,18.1
2018-04-18T07:39:22.299Z,26.9
2018-04-18T07:40:23.051Z,18.8
2018-04-18T07:41:23.775Z,18.7
2018-04-18T07:42:24.587Z,20.0
2018-04-18T07:43:25.330Z,29.5
2018-04-18T07:44:26.154Z,18.3
2018-04-18T07:45:26.910Z,27.2
2018-04-18T07:46:27.663Z,18.0
2018-04-18T07:47:28.417Z,16.7
2018-04-18T07:48:29.167Z,19.9
2018-04-18T07:49:30.003Z,16.4
2018-04-18T07:50:30.813Z,25.7
2018-04-18T07:51:31.546Z,15.6
2018-04-18T07:52:32.297Z,18.1
2018-04-18T07:53:33.105Z,14.7
2018-04-18T07:54:33.866Z,15.9
2018-04-18T07:55:34.598Z,17.3
2018-04-18T07:56:35.417Z,13.7
2018-04-18T07:57:36.231Z,22.4
2018-04-18T07:58:37.069Z,14.5
2018-04-18T07:59:37.857Z,23.5
2018-04-18T08:00:38.604Z,12.7
2018-04-18T08:01:39.346Z,15.2
2018-04-18T08:02:40.116Z,18.1
2018-04-18T08:03:40.934Z,16.3
2018-04-18T08:04:41.685Z,17.4
2018-04-18T08:05:42.435Z,17.9
2018-04-18T08:06:43.370Z,18.9
2018-04-18T08:07:44.175Z,21.7
2018-04-18T08:08:44.906Z,15.5
2018-04-18T08:09:45.776Z,20.2
2018-04-18T08:10:46.646Z,16.4
2018-04-18T08:11:47.438Z,16.6
2018-04-18T08:12:48.296Z,16.6
2018-04-18T08:13:49.108Z,14.1
2018-04-18T08:14:49.887Z,16.2
2018-04-18T08:15:50.691Z,17.6
2018-04-18T08:16:51.467Z,12.5
2018-04-18T08:17:52.315Z,19.7
2018-04-18T08:18:53.292Z,14.5
2018-04-18T08:19:54.120Z,15.7
2018-04-18T08:20:54.879Z,16.8
2018-04-18T08:21:55.690Z,17.7
2018-04-18T08:22:56.436Z,14.8
2018-04-18T08:23:57.432Z,14.1
2018-04-18T08:24:58.259Z,17.0
2018-04-18T08:25:59.085Z,18.8
2018-04-18T08:26:59.964Z,17.2
2018-04-18T08:28:01.351Z,22.4
2018-04-18T08:29:02.043Z,23.8
2018-04-18T08:30:02.873Z,16.9
2018-04-18T08:31:04.012Z,20.6
2018-04-18T08:32:05.535Z,21.8
2018-04-18T08:33:07.013Z,21.6
2018-04-18T08:34:07.891Z,18.0
2018-04-18T08:35:08.650Z,29.6
2018-04-18T08:36:09.495Z,26.0
2018-04-18T08:37:10.306Z,20.6
2018-04-18T08:38:11.055Z,20.9
2018-04-18T08:39:11.894Z,22.9
2018-04-18T08:40:12.668Z,22.8
2018-04-18T08:41:13.430Z,22.8
2018-04-18T08:42:14.295Z,25.3
2018-04-18T08:43:15.028Z,18.8
2018-04-18T08:44:15.867Z,16.1
2018-04-18T08:45:16.602Z,18.0
2018-04-18T08:46:17.364Z,26.9
2018-04-18T08:47:18.140Z,24.0
2018-04-18T08:48:18.955Z,18.3
2018-04-18T08:49:19.777Z,17.2
2018-04-18T08:50:20.681Z,23.4
2018-04-18T08:51:21.433Z,24.2
2018-04-18T08:52:22.196Z,19.7
2018-04-18T08:53:22.953Z,22.7
2018-04-18T08:54:23.718Z,20.9
2018-04-18T08:55:24.557Z,25.6
2018-04-18T08:56:25.361Z,28.4
2018-04-18T08:57:26.198Z,28.9
2018-04-18T08:58:27.033Z,31.3
2018-04-18T08:59:27.886Z,30.1
2018-04-18T09:00:28.657Z,28.0
2018-04-18T09:01:29.467Z,33.7
2018-04-18T09:02:30.219Z,33.5
2018-04-18T09:03:30.971Z,37.2
2018-04-18T09:04:31.721Z,36.7
2018-04-18T09:05:32.492Z,35.5
2018-04-18T09:06:33.324Z,34.9
2018-04-18T09:07:34.160Z,36.3
2018-04-18T09:08:34.966Z,39.4
2018-04-18T09:09:35.733Z,37.3
2018-04-18T09:10:36.494Z,37.7
2018-04-18T09:11:37.353Z,45.1
2018-04-18T09:12:38.183Z,37.3
2018-04-18T09:13:38.922Z,44.6
2018-04-18T09:14:39.690Z,45.8
2018-04-18T09:15:40.531Z,40.0
2018-04-18T09:16:41.254Z,40.7
2018-04-18T09:17:42.059Z,40.5
2018-04-18T09:18:42.802Z,38.4
2018-04-18T09:19:43.663Z,35.1
2018-04-18T09:20:44.407Z,33.0
2018-04-18T09:21:45.149Z,37.7
2018-04-18T09:22:45.998Z,32.8
2018-04-18T09:23:46.805Z,29.3
2018-04-18T09:24:47.557Z,31.4
2018-04-18T09:25:48.383Z,28.2
2018-04-18T09:26:49.121Z,30.8
2018-04-18T09:27:49.867Z,33.1
2018-04-18T09:28:50.610Z,32.7
2018-04-18T09:29:51.408Z,31.9
2018-04-18T09:30:52.203Z,31.1
2018-04-18T09:31:52.962Z,32.1
2018-04-18T09:32:53.704Z,30.4
2018-04-18T09:33:54.503Z,31.3
2018-04-18T09:34:55.255Z,36.5
2018-04-18T09:35:56.024Z,29.3
2018-04-18T09:36:56.862Z,31.6
2018-04-18T09:37:57.605Z,33.3
2018-04-18T09:38:58.361Z,36.8
2018-04-18T09:39:59.120Z,33.4
2018-04-18T09:41:00.211Z,43.7
2018-04-18T09:42:01.217Z,36.6
2018-04-18T09:43:01.979Z,32.9
2018-04-18T09:44:02.858Z,32.1
2018-04-18T09:45:03.694Z,36.2
2018-04-18T09:46:04.513Z,38.4
2018-04-18T09:47:05.272Z,43.4
2018-04-18T09:48:06.038Z,44.8
2018-04-18T09:49:06.911Z,42.4
2018-04-18T09:50:07.677Z,44.3
2018-04-18T09:51:08.438Z,43.6
2018-04-18T09:52:09.285Z,42.0
2018-04-18T09:53:10.043Z,39.0
2018-04-18T09:54:10.851Z,44.3
2018-04-18T09:55:11.704Z,44.9
2018-04-18T09:56:12.443Z,46.4
2018-04-18T09:57:13.193Z,37.6
2018-04-18T09:58:13.976Z,43.5
2018-04-18T09:59:14.721Z,41.2
2018-04-18T10:00:15.613Z,41.2
2018-04-18T10:01:16.365Z,39.6
2018-04-18T10:02:17.203Z,39.2
2018-04-18T10:03:18.301Z,42.9
2018-04-18T10:04:19.050Z,39.9
2018-04-18T10:05:19.809Z,41.8
2018-04-18T10:06:20.565Z,40.7
2018-04-18T10:07:21.328Z,42.5
2018-04-18T10:08:22.186Z,42.5
2018-04-18T10:09:22.999Z,40.8
2018-04-18T10:10:23.752Z,38.2
2018-04-18T10:11:24.505Z,37.0
2018-04-18T10:12:25.302Z,42.0
2018-04-18T10:13:26.060Z,33.0
2018-04-18T10:14:26.824Z,34.3
2018-04-18T10:15:27.645Z,43.3
2018-04-18T10:16:28.394Z,47.4
2018-04-18T10:17:29.243Z,33.9
2018-04-18T10:18:30.113Z,30.9
2018-04-18T10:19:30.933Z,25.7
2018-04-18T10:20:31.767Z,26.0
2018-04-18T10:21:32.514Z,26.1
2018-04-18T10:22:33.287Z,33.6
2018-04-18T10:23:34.046Z,30.8
2018-04-18T10:24:34.859Z,27.1
2018-04-18T10:25:35.951Z,21.4
2018-04-18T10:26:36.802Z,20.1
2018-04-18T10:27:37.629Z,24.6
2018-04-18T10:28:38.360Z,21.4
2018-04-18T10:29:39.102Z,18.5
2018-04-18T10:30:39.949Z,25.4
2018-04-18T10:31:40.785Z,23.5
2018-04-18T10:32:41.532Z,24.4
2018-04-18T10:33:42.293Z,21.8
2018-04-18T10:34:43.016Z,25.7
2018-04-18T10:35:43.863Z,25.1
2018-04-18T10:36:44.610Z,24.1
2018-04-18T10:37:45.370Z,30.3
2018-04-18T10:38:46.167Z,30.5
2018-04-18T10:39:46.961Z,29.6
2018-04-18T10:40:47.723Z,22.2
2018-04-18T10:41:48.453Z,27.1
2018-04-18T10:42:49.314Z,23.7
2018-04-18T10:43:50.030Z,25.7
2018-04-18T10:44:50.798Z,29.2
2018-04-18T10:45:51.602Z,23.5
2018-04-18T10:46:52.348Z,23.6
2018-04-18T10:47:53.128Z,26.9
2018-04-18T10:48:53.862Z,21.8
2018-04-18T10:49:54.693Z,23.1
2018-04-18T10:50:55.413Z,31.1
2018-04-18T10:51:56.182Z,29.3
2018-04-18T10:52:56.973Z,31.4
2018-04-18T10:53:57.665Z,37.6
2018-04-18T10:54:58.491Z,30.1
2018-04-18T10:55:59.244Z,29.2
2018-04-18T10:56:59.984Z,28.1
2018-04-18T10:58:00.811Z,32.8
2018-04-18T10:59:01.566Z,32.9
2018-04-18T11:00:03.244Z,32.3
2018-04-18T11:01:03.932Z,30.0
2018-04-18T11:02:04.681Z,28.9
2018-04-18T11:03:05.428Z,27.8
2018-04-18T11:04:06.192Z,28.0
2018-04-18T11:05:06.961Z,31.7
2018-04-18T11:06:07.716Z,35.2
2018-04-18T11:07:08.474Z,27.7
2018-04-18T11:08:09.283Z,34.6
2018-04-18T11:09:10.032Z,28.3
2018-04-18T11:10:10.793Z,30.4
2018-04-18T11:11:11.549Z,24.4
2018-04-18T11:12:12.321Z,26.9
2018-04-18T11:13:13.501Z,31.3
2018-04-18T11:14:14.295Z,26.9
2018-04-18T11:15:15.075Z,27.8
2018-04-18T11:16:15.884Z,29.3
2018-04-18T11:17:16.644Z,30.1
2018-04-18T11:18:17.488Z,32.5
2018-04-18T11:19:18.257Z,30.5
2018-04-18T11:20:19.024Z,31.2
2018-04-18T11:21:19.783Z,32.1
2018-04-18T11:22:20.620Z,33.0
2018-04-18T11:23:21.425Z,35.0
2018-04-18T11:24:22.192Z,30.8
2018-04-18T11:25:22.951Z,32.0
2018-04-18T11:26:23.693Z,32.3
2018-04-18T11:27:24.519Z,34.6
2018-04-18T11:28:25.379Z,37.3
2018-04-18T11:29:26.188Z,30.8
2018-04-18T11:30:26.955Z,36.8
2018-04-18T11:31:27.735Z,32.8
2018-04-18T11:32:28.573Z,35.4
2018-04-18T11:33:29.332Z,31.7
2018-04-18T11:34:30.179Z,26.7
2018-04-18T11:35:31.020Z,26.1
2018-04-18T11:36:31.854Z,36.6
2018-04-18T11:37:32.692Z,27.9
2018-04-18T11:38:33.444Z,25.3
2018-04-18T11:39:34.255Z,29.2
2018-04-18T11:40:35.030Z,24.6
2018-04-18T11:41:35.774Z,28.1
2018-04-18T11:42:36.530Z,28.1
2018-04-18T11:43:37.279Z,29.0
2018-04-18T11:44:38.028Z,29.3
2018-04-18T11:45:38.798Z,26.6
2018-04-18T11:46:39.538Z,25.3
2018-04-18T11:47:40.353Z,27.2
2018-04-18T11:48:41.107Z,27.3
2018-04-18T11:49:41.906Z,26.6
2018-04-18T11:50:42.665Z,24.5
2018-04-18T11:51:43.402Z,27.1
2018-04-18T11:52:44.206Z,27.4
2018-04-18T11:53:44.979Z,28.3
2018-04-18T11:54:45.883Z,30.3
2018-04-18T11:55:46.630Z,30.4
2018-04-18T11:56:47.415Z,26.8
2018-04-18T11:57:48.166Z,24.2
2018-04-18T11:58:48.923Z,26.1
2018-04-18T11:59:49.735Z,26.2
2018-04-18T12:00:50.497Z,25.6
2018-04-18T12:01:51.294Z,26.1
2018-04-18T12:02:52.102Z,25.1
2018-04-18T12:03:52.850Z,26.8
2018-04-18T12:04:53.608Z,25.2
2018-04-18T12:05:54.398Z,24.8
2018-04-18T12:06:55.164Z,25.0
2018-04-18T12:07:55.937Z,27.8
2018-04-18T12:08:56.774Z,27.2
2018-04-18T12:09:57.590Z,22.3
2018-04-18T12:10:58.339Z,35.7
2018-04-18T12:11:59.179Z,21.8
2018-04-18T12:12:59.973Z,30.2
2018-04-18T12:14:00.774Z,27.3
2018-04-18T12:15:01.615Z,25.4
2018-04-18T12:16:02.381Z,26.6
2018-04-18T12:17:03.147Z,33.5
2018-04-18T12:18:03.888Z,32.7
2018-04-18T12:19:04.676Z,28.8
2018-04-18T12:20:05.440Z,23.7
2018-04-18T12:21:06.309Z,29.1
2018-04-18T12:22:07.074Z,30.3
2018-04-18T12:23:07.843Z,28.6
2018-04-18T12:24:08.589Z,27.7
2018-04-18T12:25:09.443Z,29.6
2018-04-18T12:26:10.185Z,26.0
2018-04-18T12:27:10.960Z,30.5
2018-04-18T12:28:11.715Z,29.2
2018-04-18T12:29:12.470Z,32.3
2018-04-18T12:30:13.233Z,27.4
2018-04-18T12:31:14.052Z,31.2
2018-04-18T12:32:15.145Z,28.9
2018-04-18T12:33:15.922Z,27.9
2018-04-18T12:34:16.673Z,28.2
2018-04-18T12:35:17.529Z,32.5
2018-04-18T12:36:18.351Z,32.4
2018-04-18T12:37:19.099Z,31.8
2018-04-18T12:38:19.851Z,35.7
2018-04-18T12:39:20.609Z,28.1
2018-04-18T12:40:21.374Z,30.9
2018-04-18T12:41:22.166Z,27.3
2018-04-18T12:42:23.023Z,29.2
2018-04-18T12:43:23.766Z,29.6
2018-04-18T12:44:24.538Z,29.7
2018-04-18T12:45:25.337Z,33.9
2018-04-18T12:46:26.133Z,31.4
2018-04-18T12:47:26.932Z,27.8
2018-04-18T12:48:27.759Z,28.3
2018-04-18T12:49:28.525Z,32.7
2018-04-18T12:50:29.285Z,26.2
2018-04-18T12:51:30.051Z,39.5
2018-04-18T12:52:30.930Z,22.6
2018-04-18T12:53:31.775Z,33.0
2018-04-18T12:54:32.519Z,32.5
2018-04-18T12:55:33.281Z,29.1
2018-04-18T12:56:34.039Z,23.1
2018-04-18T12:57:34.914Z,28.3
2018-04-18T12:58:35.798Z,27.7
2018-04-18T12:59:36.557Z,26.5
2018-04-18T13:00:37.300Z,25.3
2018-04-18T13:01:38.071Z,29.3
2018-04-18T13:02:38.819Z,29.3
2018-04-18T13:03:39.559Z,32.6
2018-04-18T13:04:40.326Z,29.5
2018-04-18T13:05:41.557Z,31.2
2018-04-18T13:06:42.296Z,31.2
2018-04-18T13:07:43.083Z,27.3
2018-04-18T13:08:43.836Z,28.4
2018-04-18T13:09:44.575Z,34.6
2018-04-18T13:10:45.349Z,31.0
2018-04-18T13:11:46.084Z,27.1
2018-04-18T13:12:46.906Z,35.7
2018-04-18T13:13:47.719Z,33.7
2018-04-18T13:14:48.478Z,29.5
2018-04-18T13:15:49.250Z,31.5
2018-04-18T13:16:50.012Z,30.6
2018-04-18T13:17:50.746Z,31.0
2018-04-18T13:18:51.551Z,31.3
2018-04-18T13:19:52.321Z,32.0
2018-04-18T13:20:53.179Z,26.5
2018-04-18T13:21:53.928Z,27.1
2018-04-18T13:22:54.758Z,26.1
2018-04-18T13:23:55.603Z,21.8
2018-04-18T13:24:56.341Z,25.2
2018-04-18T13:25:57.153Z,30.0
2018-04-18T13:26:57.977Z,25.8
2018-04-18T13:27:58.746Z,28.0
2018-04-18T13:28:59.502Z,23.3